sensor_id;sensor_type;location;lat;lon;timestamp;pressure;altitude;pressure_sealevel;temperature;humidity
16777;BME280;8505;49.456;8.164;2024-03-17T00:02:17;100574.25;;;6.84;97.55
16777;BME280;8505;49.456;8.164;2024-03-17T00:04:43;100575.56;;;6.79;97.92
16777;BME280;8505;49.456;8.164;2024-03-17T00:07:11;100580.38;;;6.74;98.26
16777;BME280;8505;49.456;8.164;2024-03-17T00:09:37;100568.41;;;6.81;97.96
16777;BME280;8505;49.456;8.164;2024-03-17T00:12:04;100571.28;;;6.78;97.04
16777;BME280;8505;49.456;8.164;2024-03-17T00:14:31;100572.31;;;6.86;97.14
16777;BME280;8505;49.456;8.164;2024-03-17T00:16:57;100567.88;;;6.87;97.39
16777;BME280;8505;49.456;8.164;2024-03-17T00:19:23;100565.31;;;6.76;97.66
16777;BME280;8505;49.456;8.164;2024-03-17T00:21:51;100567.00;;;6.77;98.26
16777;BME280;8505;49.456;8.164;2024-03-17T00:24:19;100567.72;;;6.68;99.55
16777;BME280;8505;49.456;8.164;2024-03-17T00:26:46;100564.66;;;6.63;99.98
16777;BME280;8505;49.456;8.164;2024-03-17T00:29:12;100565.16;;;6.57;100.00
16777;BME280;8505;49.456;8.164;2024-03-17T00:31:40;100563.75;;;6.53;100.00
16777;BME280;8505;49.456;8.164;2024-03-17T00:34:06;100562.91;;;6.52;100.00
16777;BME280;8505;49.456;8.164;2024-03-17T00:36:33;100562.78;;;6.54;100.00
16777;BME280;8505;49.456;8.164;2024-03-17T00:38:59;100560.38;;;6.50;100.00
16777;BME280;8505;49.456;8.164;2024-03-17T00:41:27;100555.91;;;6.41;100.00
16777;BME280;8505;49.456;8.164;2024-03-17T00:43:53;100548.91;;;6.52;100.00
16777;BME280;8505;49.456;8.164;2024-03-17T00:46:20;100550.75;;;6.40;100.00
16777;BME280;8505;49.456;8.164;2024-03-17T00:48:47;100538.16;;;6.43;100.00
16777;BME280;8505;49.456;8.164;2024-03-17T00:51:14;100553.25;;;6.41;100.00
16777;BME280;8505;49.456;8.164;2024-03-17T00:53:40;100548.00;;;6.41;100.00
16777;BME280;8505;49.456;8.164;2024-03-17T00:56:07;100541.75;;;6.42;100.00
16777;BME280;8505;49.456;8.164;2024-03-17T00:58:34;100536.81;;;6.49;100.00
16777;BME280;8505;49.456;8.164;2024-03-17T01:01:01;100531.22;;;6.54;100.00
16777;BME280;8505;49.456;8.164;2024-03-17T01:03:27;100529.88;;;6.59;100.00
16777;BME280;8505;49.456;8.164;2024-03-17T01:05:54;100529.31;;;6.44;100.00
16777;BME280;8505;49.456;8.164;2024-03-17T01:08:20;100527.41;;;6.46;100.00
16777;BME280;8505;49.456;8.164;2024-03-17T01:10:48;100532.78;;;6.45;100.00
16777;BME280;8505;49.456;8.164;2024-03-17T01:13:15;100528.88;;;6.39;100.00
16777;BME280;8505;49.456;8.164;2024-03-17T01:15:43;100528.16;;;6.37;100.00
16777;BME280;8505;49.456;8.164;2024-03-17T01:18:09;100520.03;;;6.40;100.00
16777;BME280;8505;49.456;8.164;2024-03-17T01:20:37;100517.72;;;6.47;100.00
16777;BME280;8505;49.456;8.164;2024-03-17T01:23:03;100514.03;;;6.38;100.00
16777;BME280;8505;49.456;8.164;2024-03-17T01:25:30;100520.84;;;6.41;100.00
16777;BME280;8505;49.456;8.164;2024-03-17T01:28:01;100518.63;;;6.25;100.00
16777;BME280;8505;49.456;8.164;2024-03-17T01:30:28;100510.50;;;6.28;100.00
16777;BME280;8505;49.456;8.164;2024-03-17T01:32:55;100505.47;;;6.25;100.00
16777;BME280;8505;49.456;8.164;2024-03-17T01:35:22;100505.03;;;6.20;100.00
16777;BME280;8505;49.456;8.164;2024-03-17T01:37:48;100508.97;;;6.15;100.00
16777;BME280;8505;49.456;8.164;2024-03-17T01:40:15;100506.09;;;6.18;100.00
16777;BME280;8505;49.456;8.164;2024-03-17T01:42:41;100503.69;;;6.26;100.00
16777;BME280;8505;49.456;8.164;2024-03-17T01:45:26;100501.94;;;6.15;100.00
16777;BME280;8505;49.456;8.164;2024-03-17T01:47:52;100497.84;;;6.22;100.00
16777;BME280;8505;49.456;8.164;2024-03-17T01:50:21;100488.41;;;6.20;100.00
16777;BME280;8505;49.456;8.164;2024-03-17T01:52:51;100485.66;;;6.21;100.00
16777;BME280;8505;49.456;8.164;2024-03-17T01:55:20;100491.41;;;6.15;100.00
16777;BME280;8505;49.456;8.164;2024-03-17T01:57:46;100486.53;;;6.11;100.00
16777;BME280;8505;49.456;8.164;2024-03-17T02:00:13;100483.41;;;6.17;100.00
16777;BME280;8505;49.456;8.164;2024-03-17T02:02:40;100476.13;;;6.09;100.00
16777;BME280;8505;49.456;8.164;2024-03-17T02:05:07;100478.03;;;6.07;100.00
16777;BME280;8505;49.456;8.164;2024-03-17T02:07:34;100485.09;;;6.06;100.00
16777;BME280;8505;49.456;8.164;2024-03-17T02:10:00;100480.94;;;6.04;100.00
16777;BME280;8505;49.456;8.164;2024-03-17T02:12:29;100482.72;;;6.03;100.00
16777;BME280;8505;49.456;8.164;2024-03-17T02:14:57;100475.31;;;6.08;100.00
16777;BME280;8505;49.456;8.164;2024-03-17T02:17:23;100474.59;;;6.06;100.00
16777;BME280;8505;49.456;8.164;2024-03-17T02:19:52;100474.34;;;6.09;100.00
16777;BME280;8505;49.456;8.164;2024-03-17T02:22:20;100468.25;;;6.09;100.00
16777;BME280;8505;49.456;8.164;2024-03-17T02:24:47;100466.50;;;5.98;100.00
16777;BME280;8505;49.456;8.164;2024-03-17T02:27:12;100467.13;;;5.91;100.00
16777;BME280;8505;49.456;8.164;2024-03-17T02:29:39;100467.69;;;5.94;100.00
16777;BME280;8505;49.456;8.164;2024-03-17T02:32:06;100460.66;;;5.84;100.00
16777;BME280;8505;49.456;8.164;2024-03-17T02:34:33;100457.06;;;5.85;100.00
16777;BME280;8505;49.456;8.164;2024-03-17T02:37:00;100447.03;;;5.79;100.00
16777;BME280;8505;49.456;8.164;2024-03-17T02:39:28;100450.34;;;5.81;100.00
16777;BME280;8505;49.456;8.164;2024-03-17T02:42:00;100442.28;;;5.73;100.00
16777;BME280;8505;49.456;8.164;2024-03-17T02:44:28;100451.56;;;5.77;100.00
16777;BME280;8505;49.456;8.164;2024-03-17T02:46:55;100438.59;;;5.64;100.00
16777;BME280;8505;49.456;8.164;2024-03-17T02:49:22;100438.97;;;5.59;100.00
16777;BME280;8505;49.456;8.164;2024-03-17T02:51:48;100449.22;;;5.62;100.00
16777;BME280;8505;49.456;8.164;2024-03-17T02:54:15;100447.31;;;5.53;100.00
16777;BME280;8505;49.456;8.164;2024-03-17T02:56:43;100437.53;;;5.55;100.00
16777;BME280;8505;49.456;8.164;2024-03-17T02:59:10;100438.63;;;5.53;100.00
16777;BME280;8505;49.456;8.164;2024-03-17T03:01:37;100441.59;;;5.37;100.00
16777;BME280;8505;49.456;8.164;2024-03-17T03:04:05;100450.31;;;5.38;100.00
16777;BME280;8505;49.456;8.164;2024-03-17T03:06:32;100448.91;;;5.34;100.00
16777;BME280;8505;49.456;8.164;2024-03-17T03:08:59;100444.47;;;5.34;100.00
16777;BME280;8505;49.456;8.164;2024-03-17T03:11:26;100448.06;;;5.33;100.00
16777;BME280;8505;49.456;8.164;2024-03-17T03:13:55;100449.38;;;5.39;100.00
16777;BME280;8505;49.456;8.164;2024-03-17T03:16:22;100449.34;;;5.50;100.00
16777;BME280;8505;49.456;8.164;2024-03-17T03:18:50;100449.72;;;5.34;100.00
16777;BME280;8505;49.456;8.164;2024-03-17T03:21:17;100448.53;;;5.27;100.00
16777;BME280;8505;49.456;8.164;2024-03-17T03:23:44;100453.44;;;5.20;100.00
16777;BME280;8505;49.456;8.164;2024-03-17T03:26:11;100449.28;;;5.18;100.00
16777;BME280;8505;49.456;8.164;2024-03-17T03:28:38;100451.16;;;5.16;100.00
16777;BME280;8505;49.456;8.164;2024-03-17T03:31:10;100451.91;;;5.18;100.00
16777;BME280;8505;49.456;8.164;2024-03-17T03:33:39;100453.78;;;5.27;100.00
16777;BME280;8505;49.456;8.164;2024-03-17T03:36:10;100453.53;;;5.19;100.00
16777;BME280;8505;49.456;8.164;2024-03-17T03:38:37;100458.78;;;5.08;100.00
16777;BME280;8505;49.456;8.164;2024-03-17T03:41:08;100464.53;;;5.13;100.00
16777;BME280;8505;49.456;8.164;2024-03-17T03:43:35;100452.34;;;5.01;100.00
16777;BME280;8505;49.456;8.164;2024-03-17T03:46:04;100461.91;;;5.02;100.00
16777;BME280;8505;49.456;8.164;2024-03-17T03:48:32;100455.44;;;4.95;100.00
16777;BME280;8505;49.456;8.164;2024-03-17T03:51:03;100454.50;;;5.07;100.00
16777;BME280;8505;49.456;8.164;2024-03-17T03:53:30;100454.28;;;4.99;100.00
16777;BME280;8505;49.456;8.164;2024-03-17T03:55:57;100451.03;;;4.95;100.00
16777;BME280;8505;49.456;8.164;2024-03-17T03:58:24;100444.25;;;4.93;100.00
16777;BME280;8505;49.456;8.164;2024-03-17T04:00:51;100442.94;;;4.98;100.00
16777;BME280;8505;49.456;8.164;2024-03-17T04:03:18;100457.38;;;4.93;100.00
16777;BME280;8505;49.456;8.164;2024-03-17T04:05:46;100456.75;;;5.00;100.00
16777;BME280;8505;49.456;8.164;2024-03-17T04:08:13;100463.94;;;4.98;100.00
16777;BME280;8505;49.456;8.164;2024-03-17T04:10:40;100457.13;;;4.96;100.00
16777;BME280;8505;49.456;8.164;2024-03-17T04:13:07;100450.81;;;4.98;100.00
16777;BME280;8505;49.456;8.164;2024-03-17T04:15:33;100443.88;;;4.97;100.00
16777;BME280;8505;49.456;8.164;2024-03-17T04:18:00;100455.22;;;5.09;100.00
16777;BME280;8505;49.456;8.164;2024-03-17T04:20:27;100451.28;;;5.03;100.00
16777;BME280;8505;49.456;8.164;2024-03-17T04:22:55;100451.88;;;4.96;100.00
16777;BME280;8505;49.456;8.164;2024-03-17T04:25:23;100454.00;;;4.91;100.00
16777;BME280;8505;49.456;8.164;2024-03-17T04:27:50;100455.34;;;4.96;100.00
16777;BME280;8505;49.456;8.164;2024-03-17T04:30:17;100460.56;;;4.85;100.00
16777;BME280;8505;49.456;8.164;2024-03-17T04:32:44;100457.84;;;4.86;100.00
16777;BME280;8505;49.456;8.164;2024-03-17T04:35:10;100449.25;;;4.84;100.00
16777;BME280;8505;49.456;8.164;2024-03-17T04:37:38;100452.91;;;4.82;100.00
16777;BME280;8505;49.456;8.164;2024-03-17T04:40:08;100447.56;;;4.83;100.00
16777;BME280;8505;49.456;8.164;2024-03-17T04:42:38;100451.75;;;4.86;100.00
16777;BME280;8505;49.456;8.164;2024-03-17T04:45:08;100431.94;;;4.82;100.00
16777;BME280;8505;49.456;8.164;2024-03-17T04:47:36;100433.88;;;4.91;100.00
16777;BME280;8505;49.456;8.164;2024-03-17T04:50:04;100438.63;;;4.97;100.00
16777;BME280;8505;49.456;8.164;2024-03-17T04:52:31;100440.78;;;4.92;100.00
16777;BME280;8505;49.456;8.164;2024-03-17T04:54:58;100438.75;;;4.96;100.00
16777;BME280;8505;49.456;8.164;2024-03-17T04:57:26;100442.81;;;5.00;100.00
16777;BME280;8505;49.456;8.164;2024-03-17T04:59:53;100444.09;;;4.94;100.00
16777;BME280;8505;49.456;8.164;2024-03-17T05:02:19;100445.44;;;5.00;100.00
16777;BME280;8505;49.456;8.164;2024-03-17T05:04:48;100443.88;;;4.97;100.00
16777;BME280;8505;49.456;8.164;2024-03-17T05:07:15;100441.88;;;5.12;100.00
16777;BME280;8505;49.456;8.164;2024-03-17T05:09:42;100445.09;;;5.04;100.00
16777;BME280;8505;49.456;8.164;2024-03-17T05:12:09;100442.56;;;5.03;100.00
16777;BME280;8505;49.456;8.164;2024-03-17T05:14:37;100442.56;;;5.03;100.00
16777;BME280;8505;49.456;8.164;2024-03-17T05:17:04;100445.78;;;5.06;100.00
16777;BME280;8505;49.456;8.164;2024-03-17T05:19:31;100438.06;;;5.05;100.00
16777;BME280;8505;49.456;8.164;2024-03-17T05:21:58;100432.81;;;4.94;100.00
16777;BME280;8505;49.456;8.164;2024-03-17T05:24:25;100446.50;;;4.86;100.00
16777;BME280;8505;49.456;8.164;2024-03-17T05:26:52;100442.78;;;4.88;100.00
16777;BME280;8505;49.456;8.164;2024-03-17T05:29:18;100460.41;;;4.75;100.00
16777;BME280;8505;49.456;8.164;2024-03-17T05:31:46;100448.00;;;4.66;100.00
16777;BME280;8505;49.456;8.164;2024-03-17T05:34:13;100445.59;;;4.63;100.00
16777;BME280;8505;49.456;8.164;2024-03-17T05:36:40;100446.81;;;4.59;100.00
16777;BME280;8505;49.456;8.164;2024-03-17T05:39:07;100451.94;;;4.61;100.00
16777;BME280;8505;49.456;8.164;2024-03-17T05:41:33;100448.50;;;4.71;100.00
16777;BME280;8505;49.456;8.164;2024-03-17T05:44:00;100452.78;;;4.61;100.00
16777;BME280;8505;49.456;8.164;2024-03-17T05:46:29;100454.78;;;4.58;100.00
16777;BME280;8505;49.456;8.164;2024-03-17T05:48:57;100457.88;;;4.52;100.00
16777;BME280;8505;49.456;8.164;2024-03-17T05:51:24;100457.84;;;4.40;100.00
16777;BME280;8505;49.456;8.164;2024-03-17T05:53:52;100458.69;;;4.41;100.00
16777;BME280;8505;49.456;8.164;2024-03-17T05:56:21;100456.97;;;4.29;100.00
16777;BME280;8505;49.456;8.164;2024-03-17T05:58:49;100457.88;;;4.17;100.00
16777;BME280;8505;49.456;8.164;2024-03-17T06:01:16;100463.31;;;4.14;100.00
16777;BME280;8505;49.456;8.164;2024-03-17T06:03:42;100457.63;;;4.20;100.00
16777;BME280;8505;49.456;8.164;2024-03-17T06:06:10;100455.41;;;4.26;100.00
16777;BME280;8505;49.456;8.164;2024-03-17T06:08:38;100448.75;;;4.33;100.00
16777;BME280;8505;49.456;8.164;2024-03-17T06:11:05;100454.63;;;4.37;100.00
16777;BME280;8505;49.456;8.164;2024-03-17T06:13:33;100453.31;;;4.42;100.00
16777;BME280;8505;49.456;8.164;2024-03-17T06:16:02;100454.66;;;4.59;100.00
16777;BME280;8505;49.456;8.164;2024-03-17T06:18:28;100458.31;;;4.45;100.00
16777;BME280;8505;49.456;8.164;2024-03-17T06:20:54;100452.16;;;4.58;100.00
16777;BME280;8505;49.456;8.164;2024-03-17T06:23:25;100450.06;;;4.74;100.00
16777;BME280;8505;49.456;8.164;2024-03-17T06:25:53;100450.66;;;4.88;100.00
16777;BME280;8505;49.456;8.164;2024-03-17T06:28:21;100440.06;;;5.01;100.00
16777;BME280;8505;49.456;8.164;2024-03-17T06:30:55;100453.06;;;5.25;100.00
16777;BME280;8505;49.456;8.164;2024-03-17T06:33:25;100445.88;;;5.49;100.00
16777;BME280;8505;49.456;8.164;2024-03-17T06:35:53;100447.19;;;5.66;100.00
16777;BME280;8505;49.456;8.164;2024-03-17T06:38:20;100455.56;;;5.60;100.00
16777;BME280;8505;49.456;8.164;2024-03-17T06:40:52;100449.81;;;5.66;100.00
16777;BME280;8505;49.456;8.164;2024-03-17T06:43:19;100451.50;;;5.67;100.00
16777;BME280;8505;49.456;8.164;2024-03-17T06:45:56;100457.78;;;5.76;100.00
16777;BME280;8505;49.456;8.164;2024-03-17T06:48:25;100459.34;;;5.78;100.00
16777;BME280;8505;49.456;8.164;2024-03-17T06:50:54;100446.19;;;5.89;100.00
16777;BME280;8505;49.456;8.164;2024-03-17T06:53:22;100450.59;;;6.00;99.89
16777;BME280;8505;49.456;8.164;2024-03-17T06:55:54;100446.63;;;6.05;99.56
16777;BME280;8505;49.456;8.164;2024-03-17T06:58:21;100447.63;;;6.25;98.99
16777;BME280;8505;49.456;8.164;2024-03-17T07:00:52;100439.56;;;6.59;97.25
16777;BME280;8505;49.456;8.164;2024-03-17T07:03:19;100438.63;;;6.60;96.31
16777;BME280;8505;49.456;8.164;2024-03-17T07:05:51;100426.72;;;6.65;95.51
16777;BME280;8505;49.456;8.164;2024-03-17T07:08:18;100430.38;;;6.74;95.10
16777;BME280;8505;49.456;8.164;2024-03-17T07:11:00;100427.22;;;6.80;95.09
16777;BME280;8505;49.456;8.164;2024-03-17T07:13:29;100430.88;;;6.88;94.64
16777;BME280;8505;49.456;8.164;2024-03-17T07:15:56;100435.06;;;6.91;94.26
16777;BME280;8505;49.456;8.164;2024-03-17T07:18:25;100445.59;;;6.91;93.84
16777;BME280;8505;49.456;8.164;2024-03-17T07:20:56;100438.03;;;7.07;92.60
16777;BME280;8505;49.456;8.164;2024-03-17T07:23:24;100428.22;;;7.09;92.10
16777;BME280;8505;49.456;8.164;2024-03-17T07:25:55;100420.66;;;7.25;92.47
16777;BME280;8505;49.456;8.164;2024-03-17T07:28:23;100421.31;;;7.58;89.89
16777;BME280;8505;49.456;8.164;2024-03-17T07:30:51;100427.47;;;8.06;86.93
16777;BME280;8505;49.456;8.164;2024-03-17T07:33:18;100422.88;;;8.57;83.51
16777;BME280;8505;49.456;8.164;2024-03-17T07:35:49;100418.22;;;8.87;80.12
16777;BME280;8505;49.456;8.164;2024-03-17T07:38:17;100420.06;;;9.14;77.72
16777;BME280;8505;49.456;8.164;2024-03-17T07:40:45;100427.28;;;9.22;78.56
16777;BME280;8505;49.456;8.164;2024-03-17T07:43:14;100428.94;;;9.23;76.49
16777;BME280;8505;49.456;8.164;2024-03-17T07:45:43;100428.84;;;9.42;76.32
16777;BME280;8505;49.456;8.164;2024-03-17T07:48:12;100424.34;;;9.52;75.26
16777;BME280;8505;49.456;8.164;2024-03-17T07:50:38;100429.66;;;9.70;74.42
16777;BME280;8505;49.456;8.164;2024-03-17T07:53:05;100429.66;;;9.88;73.13
16777;BME280;8505;49.456;8.164;2024-03-17T07:55:38;100430.22;;;9.91;73.80
16777;BME280;8505;49.456;8.164;2024-03-17T07:58:05;100426.59;;;9.92;73.84
16777;BME280;8505;49.456;8.164;2024-03-17T08:00:32;100438.16;;;10.09;73.22
16777;BME280;8505;49.456;8.164;2024-03-17T08:03:04;100439.28;;;10.06;73.56
16777;BME280;8505;49.456;8.164;2024-03-17T08:05:32;100443.59;;;10.07;73.19
16777;BME280;8505;49.456;8.164;2024-03-17T08:08:00;100434.22;;;10.13;73.81
16777;BME280;8505;49.456;8.164;2024-03-17T08:10:28;100431.84;;;10.20;73.55
16777;BME280;8505;49.456;8.164;2024-03-17T08:12:55;100426.84;;;10.34;73.07
16777;BME280;8505;49.456;8.164;2024-03-17T08:15:22;100423.06;;;10.37;73.13
16777;BME280;8505;49.456;8.164;2024-03-17T08:17:49;100421.22;;;10.37;73.46
16777;BME280;8505;49.456;8.164;2024-03-17T08:20:17;100418.97;;;10.42;74.05
16777;BME280;8505;49.456;8.164;2024-03-17T08:22:44;100418.03;;;10.51;73.32
16777;BME280;8505;49.456;8.164;2024-03-17T08:25:12;100418.28;;;10.84;72.08
16777;BME280;8505;49.456;8.164;2024-03-17T08:27:38;100407.53;;;10.85;72.35
16777;BME280;8505;49.456;8.164;2024-03-17T08:30:08;100413.28;;;10.81;72.26
16777;BME280;8505;49.456;8.164;2024-03-17T08:32:35;100416.69;;;10.47;73.42
16777;BME280;8505;49.456;8.164;2024-03-17T08:35:03;100413.53;;;10.70;73.23
16777;BME280;8505;49.456;8.164;2024-03-17T08:37:31;100407.31;;;10.53;73.58
16777;BME280;8505;49.456;8.164;2024-03-17T08:40:00;100412.28;;;10.30;74.07
16777;BME280;8505;49.456;8.164;2024-03-17T08:42:27;100410.03;;;10.43;74.48
16777;BME280;8505;49.456;8.164;2024-03-17T08:44:54;100404.53;;;10.63;74.26
16777;BME280;8505;49.456;8.164;2024-03-17T08:47:20;100394.47;;;10.92;72.81
16777;BME280;8505;49.456;8.164;2024-03-17T08:49:50;100400.97;;;10.46;73.62
16777;BME280;8505;49.456;8.164;2024-03-17T08:52:17;100395.78;;;10.88;72.91
16777;BME280;8505;49.456;8.164;2024-03-17T08:54:47;100400.88;;;11.15;71.23
16777;BME280;8505;49.456;8.164;2024-03-17T08:57:17;100403.06;;;11.20;70.58
16777;BME280;8505;49.456;8.164;2024-03-17T08:59:46;100410.47;;;11.08;70.23
16777;BME280;8505;49.456;8.164;2024-03-17T09:02:15;100404.31;;;11.42;70.84
16777;BME280;8505;49.456;8.164;2024-03-17T09:04:42;100404.13;;;11.77;68.83
16777;BME280;8505;49.456;8.164;2024-03-17T09:07:09;100395.19;;;12.35;67.47
16777;BME280;8505;49.456;8.164;2024-03-17T09:09:36;100393.03;;;12.54;65.91
16777;BME280;8505;49.456;8.164;2024-03-17T09:12:04;100396.19;;;12.58;66.32
16777;BME280;8505;49.456;8.164;2024-03-17T09:14:31;100399.34;;;12.37;66.44
16777;BME280;8505;49.456;8.164;2024-03-17T09:16:58;100392.91;;;12.40;67.08
16777;BME280;8505;49.456;8.164;2024-03-17T09:19:26;100394.69;;;12.47;66.11
16777;BME280;8505;49.456;8.164;2024-03-17T09:21:54;100395.00;;;12.69;65.78
16777;BME280;8505;49.456;8.164;2024-03-17T09:24:21;100394.97;;;12.93;66.34
16777;BME280;8505;49.456;8.164;2024-03-17T09:26:49;100394.41;;;13.84;64.63
16777;BME280;8505;49.456;8.164;2024-03-17T09:29:17;100392.56;;;14.38;61.27
16777;BME280;8505;49.456;8.164;2024-03-17T09:31:43;100396.47;;;14.79;60.64
16777;BME280;8505;49.456;8.164;2024-03-17T09:34:10;100391.59;;;14.83;60.87
16777;BME280;8505;49.456;8.164;2024-03-17T09:36:37;100388.47;;;14.79;59.31
16777;BME280;8505;49.456;8.164;2024-03-17T09:39:04;100390.34;;;14.41;59.77
16777;BME280;8505;49.456;8.164;2024-03-17T09:41:32;100388.13;;;14.22;60.71
16777;BME280;8505;49.456;8.164;2024-03-17T09:43:58;100384.16;;;15.08;59.48
16777;BME280;8505;49.456;8.164;2024-03-17T09:46:27;100391.75;;;14.29;58.87
16777;BME280;8505;49.456;8.164;2024-03-17T09:48:54;100397.59;;;14.02;60.58
16777;BME280;8505;49.456;8.164;2024-03-17T09:51:24;100388.13;;;14.22;61.26
16777;BME280;8505;49.456;8.164;2024-03-17T09:53:52;100389.19;;;14.58;59.81
16777;BME280;8505;49.456;8.164;2024-03-17T09:56:20;100394.00;;;14.40;59.00
16777;BME280;8505;49.456;8.164;2024-03-17T09:58:47;100393.81;;;14.94;58.63
16777;BME280;8505;49.456;8.164;2024-03-17T10:01:15;100392.06;;;14.72;59.19
16777;BME280;8505;49.456;8.164;2024-03-17T10:03:45;100383.59;;;14.68;59.80
16777;BME280;8505;49.456;8.164;2024-03-17T10:06:16;100384.47;;;14.23;61.11
16777;BME280;8505;49.456;8.164;2024-03-17T10:08:44;100380.91;;;14.53;59.93
16777;BME280;8505;49.456;8.164;2024-03-17T10:11:12;100391.75;;;14.29;61.46
16777;BME280;8505;49.456;8.164;2024-03-17T10:13:39;100396.91;;;14.53;60.66
16777;BME280;8505;49.456;8.164;2024-03-17T10:16:06;100391.59;;;14.83;60.16
16777;BME280;8505;49.456;8.164;2024-03-17T10:18:33;100397.09;;;14.67;60.09
16777;BME280;8505;49.456;8.164;2024-03-17T10:21:02;100394.00;;;15.22;57.88
16777;BME280;8505;49.456;8.164;2024-03-17T10:23:31;100389.88;;;14.90;58.74
16777;BME280;8505;49.456;8.164;2024-03-17T10:25:58;100390.38;;;14.33;61.31
16777;BME280;8505;49.456;8.164;2024-03-17T10:28:27;100395.94;;;13.47;64.26
16777;BME280;8505;49.456;8.164;2024-03-17T10:30:58;100393.03;;;14.33;62.02
16777;BME280;8505;49.456;8.164;2024-03-17T10:33:28;100392.50;;;14.61;61.77
16777;BME280;8505;49.456;8.164;2024-03-17T10:36:01;100390.22;;;14.72;59.97
16777;BME280;8505;49.456;8.164;2024-03-17T10:38:31;100387.72;;;14.10;62.22
16777;BME280;8505;49.456;8.164;2024-03-17T10:41:00;100385.06;;;13.88;63.51
16777;BME280;8505;49.456;8.164;2024-03-17T10:43:27;100390.41;;;13.88;63.85
16777;BME280;8505;49.456;8.164;2024-03-17T10:45:58;100382.03;;;14.36;60.96
16777;BME280;8505;49.456;8.164;2024-03-17T10:48:30;100366.81;;;14.22;62.58
16777;BME280;8505;49.456;8.164;2024-03-17T10:51:03;100368.22;;;14.33;63.10
16777;BME280;8505;49.456;8.164;2024-03-17T10:53:30;100359.50;;;14.24;62.92
16777;BME280;8505;49.456;8.164;2024-03-17T10:56:06;100361.16;;;14.25;63.79
16777;BME280;8505;49.456;8.164;2024-03-17T10:58:35;100354.81;;;14.49;63.46
16777;BME280;8505;49.456;8.164;2024-03-17T11:01:03;100358.50;;;14.63;61.97
16777;BME280;8505;49.456;8.164;2024-03-17T11:03:32;100349.31;;;14.80;62.19
16777;BME280;8505;49.456;8.164;2024-03-17T11:06:04;100351.97;;;14.94;61.60
16777;BME280;8505;49.456;8.164;2024-03-17T11:08:33;100341.13;;;14.67;62.32
16777;BME280;8505;49.456;8.164;2024-03-17T11:11:00;100351.81;;;14.06;64.10
16777;BME280;8505;49.456;8.164;2024-03-17T11:13:30;100344.59;;;14.38;63.87
16777;BME280;8505;49.456;8.164;2024-03-17T11:15:58;100347.25;;;14.38;64.56
16777;BME280;8505;49.456;8.164;2024-03-17T11:18:37;100337.44;;;14.53;62.94
16777;BME280;8505;49.456;8.164;2024-03-17T11:21:19;100332.31;;;14.81;62.68
16777;BME280;8505;49.456;8.164;2024-03-17T11:24:00;100336.66;;;14.44;63.57
16777;BME280;8505;49.456;8.164;2024-03-17T11:26:28;100324.31;;;14.81;63.00
16777;BME280;8505;49.456;8.164;2024-03-17T11:28:56;100326.63;;;15.70;61.00
16777;BME280;8505;49.456;8.164;2024-03-17T11:31:34;100331.88;;;15.78;59.56
16777;BME280;8505;49.456;8.164;2024-03-17T11:34:01;100330.41;;;15.25;60.85
16777;BME280;8505;49.456;8.164;2024-03-17T11:36:37;100322.31;;;15.33;60.85
16777;BME280;8505;49.456;8.164;2024-03-17T11:39:06;100313.94;;;15.72;59.52
16777;BME280;8505;49.456;8.164;2024-03-17T11:41:36;100311.38;;;15.64;58.60
16777;BME280;8505;49.456;8.164;2024-03-17T11:44:14;100320.31;;;15.57;58.79
16777;BME280;8505;49.456;8.164;2024-03-17T11:46:40;100312.56;;;15.62;59.15
16777;BME280;8505;49.456;8.164;2024-03-17T11:49:18;100316.38;;;15.02;59.81
16777;BME280;8505;49.456;8.164;2024-03-17T11:51:46;100319.47;;;15.20;59.83
16777;BME280;8505;49.456;8.164;2024-03-17T11:54:15;100317.22;;;14.73;61.80
16777;BME280;8505;49.456;8.164;2024-03-17T11:56:47;100321.81;;;14.65;62.40
16777;BME280;8505;49.456;8.164;2024-03-17T11:59:15;100324.75;;;14.55;62.49
16777;BME280;8505;49.456;8.164;2024-03-17T12:01:43;100326.44;;;14.33;63.41
16777;BME280;8505;49.456;8.164;2024-03-17T12:04:13;100321.97;;;14.11;64.41
16777;BME280;8505;49.456;8.164;2024-03-17T12:06:41;100315.44;;;14.13;63.69
16777;BME280;8505;49.456;8.164;2024-03-17T12:09:20;100318.59;;;14.54;62.47
16777;BME280;8505;49.456;8.164;2024-03-17T12:11:47;100312.16;;;14.64;62.86
16777;BME280;8505;49.456;8.164;2024-03-17T12:14:16;100312.06;;;14.42;63.34
16777;BME280;8505;49.456;8.164;2024-03-17T12:16:50;100307.16;;;14.31;64.28
16777;BME280;8505;49.456;8.164;2024-03-17T12:19:17;100302.81;;;14.30;64.49
16777;BME280;8505;49.456;8.164;2024-03-17T12:21:44;100291.63;;;14.35;64.47
16777;BME280;8505;49.456;8.164;2024-03-17T12:24:16;100295.16;;;14.50;63.74
16777;BME280;8505;49.456;8.164;2024-03-17T12:26:46;100292.88;;;14.24;64.53
16777;BME280;8505;49.456;8.164;2024-03-17T12:29:24;100291.91;;;14.40;64.34
16777;BME280;8505;49.456;8.164;2024-03-17T12:31:51;100296.25;;;14.70;64.51
16777;BME280;8505;49.456;8.164;2024-03-17T12:34:19;100292.66;;;14.92;63.59
16777;BME280;8505;49.456;8.164;2024-03-17T12:36:46;100292.84;;;15.06;63.35
16777;BME280;8505;49.456;8.164;2024-03-17T12:39:18;100293.38;;;15.01;63.06
16777;BME280;8505;49.456;8.164;2024-03-17T12:42:01;100288.81;;;14.66;64.01
16777;BME280;8505;49.456;8.164;2024-03-17T12:44:28;100288.16;;;14.78;64.35
16777;BME280;8505;49.456;8.164;2024-03-17T12:46:55;100277.56;;;15.00;63.52
16777;BME280;8505;49.456;8.164;2024-03-17T12:49:23;100278.88;;;14.60;64.75
16777;BME280;8505;49.456;8.164;2024-03-17T12:51:51;100278.19;;;15.16;63.58
16777;BME280;8505;49.456;8.164;2024-03-17T12:54:20;100272.28;;;15.21;63.76
16777;BME280;8505;49.456;8.164;2024-03-17T12:56:48;100264.84;;;15.37;62.61
16777;BME280;8505;49.456;8.164;2024-03-17T12:59:42;100256.09;;;14.72;64.83
16777;BME280;8505;49.456;8.164;2024-03-17T13:02:27;100257.13;;;14.56;65.55
16777;BME280;8505;49.456;8.164;2024-03-17T13:05:21;100249.47;;;14.68;65.36
16777;BME280;8505;49.456;8.164;2024-03-17T13:07:49;100247.91;;;14.58;64.47
16777;BME280;8505;49.456;8.164;2024-03-17T13:10:17;100249.28;;;14.40;65.97